Time;durP1;ratioP1;P1;durP2;ratioP2;P2;SDS_P1;SDS_P2;PMS_P1;PMS_P2;Temp;Humidity;BMP_temperature;BMP_pressure;BME280_temperature;BME280_humidity;BME280_pressure;Samples;Min_cycle;Max_cycle;Signal;HPM_P1;HPM_P2
2022/08/05 00:01:40;;;;;;;4.25;1.77;;;;;;;23.89;41.92;99669.72;5129917;27;20527;-79
2022/08/05 00:04:06;;;;;;;2.00;1.20;;;;;;;23.89;41.75;99668.88;5129162;27;20115;-78
2022/08/05 00:06:32;;;;;;;2.22;1.42;;;;;;;24.00;41.11;99677.06;5129768;27;20039;-78
2022/08/05 00:08:59;;;;;;;2.58;1.45;;;;;;;24.12;41.14;99684.25;5129181;27;20822;-80
2022/08/05 00:11:24;;;;;;;3.92;1.92;;;;;;;24.23;40.65;99647.59;5129020;27;20038;-80
2022/08/05 00:13:50;;;;;;;2.05;1.38;;;;;;;24.24;40.47;99647.50;5129726;27;20027;-78
2022/08/05 00:16:15;;;;;;;1.85;1.52;;;;;;;24.30;40.61;99670.44;5129325;27;20481;-78
2022/08/05 00:18:44;;;;;;;3.42;1.73;;;;;;;24.12;40.76;99651.94;5129144;27;20089;-78
2022/08/05 00:21:10;;;;;;;1.83;1.23;;;;;;;24.25;40.60;99659.13;5129178;27;20070;-79
2022/08/05 00:23:36;;;;;;;2.33;1.55;;;;;;;24.34;40.80;99669.22;5129172;27;20131;-78
2022/08/05 00:26:02;;;;;;;3.35;1.65;;;;;;;24.39;40.59;99669.78;5128850;27;20114;-79
2022/08/05 00:28:28;;;;;;;2.15;1.38;;;;;;;24.26;41.08;99655.47;5128975;27;20114;-78
2022/08/05 00:30:53;;;;;;;1.63;1.33;;;;;;;24.27;41.33;99667.97;5110182;27;20184;-80
2022/08/05 00:33:19;;;;;;;2.25;1.85;;;;;;;24.02;42.21;99667.06;5129143;27;20054;-79
2022/08/05 00:35:44;;;;;;;2.22;1.98;;;;;;;24.02;43.01;99672.44;5128891;27;20084;-79
2022/08/05 00:38:10;;;;;;;2.28;1.70;;;;;;;24.06;42.73;99654.22;5128414;27;20054;-79
2022/08/05 00:40:48;;;;;;;3.72;1.88;;;;;;;23.84;43.90;99652.16;5128578;27;20096;-78
2022/08/05 00:43:14;;;;;;;2.17;1.52;;;;;;;23.74;44.35;99643.84;5129144;27;20520;-80
2022/08/05 00:45:39;;;;;;;2.17;1.80;;;;;;;23.73;44.85;99669.09;5128668;27;20030;-78
2022/08/05 00:48:07;;;;;;;1.70;1.40;;;;;;;23.50;45.28;99651.84;5128794;27;20898;-79
2022/08/05 00:50:32;;;;;;;4.63;2.58;;;;;;;23.40;45.46;99657.84;5128427;27;20412;-79
2022/08/05 00:52:58;;;;;;;3.45;1.50;;;;;;;23.33;45.64;99648.47;5128414;27;20106;-79
2022/08/05 00:55:23;;;;;;;2.42;1.50;;;;;;;23.05;46.38;99631.50;5128941;27;20485;-78
2022/08/05 00:57:49;;;;;;;1.80;1.33;;;;;;;23.22;46.53;99635.75;5128318;27;20035;-78
2022/08/05 01:00:14;;;;;;;2.20;1.70;;;;;;;23.37;46.15;99641.94;5128509;27;20031;-78
2022/08/05 01:02:40;;;;;;;3.33;1.65;;;;;;;23.41;46.34;99651.50;5128462;27;20500;-78
2022/08/05 01:05:06;;;;;;;3.30;1.95;;;;;;;23.36;46.42;99658.19;5128154;27;20430;-78
2022/08/05 01:07:31;;;;;;;2.03;1.63;;;;;;;23.27;46.43;99643.50;5128024;27;20035;-78
2022/08/05 01:09:57;;;;;;;4.07;1.90;;;;;;;23.34;46.19;99654.72;5127760;27;20118;-79
2022/08/05 01:12:24;;;;;;;2.17;1.63;;;;;;;23.37;46.41;99633.84;5128297;27;20023;-79
2022/08/05 01:15:02;;;;;;;5.15;2.28;;;;;;;23.31;46.73;99642.34;5128127;27;20027;-80
2022/08/05 01:17:36;;;;;;;2.33;1.45;;;;;;;23.28;46.77;99644.38;5128073;27;20039;-78
2022/08/05 01:20:15;;;;;;;4.13;2.15;;;;;;;23.06;47.13;99626.97;5127940;27;20624;-78
2022/08/05 01:22:46;;;;;;;3.10;2.17;;;;;;;23.14;47.59;99656.06;5128281;27;20100;-78
2022/08/05 01:25:27;;;;;;;2.53;2.05;;;;;;;22.97;48.04;99668.81;5127822;27;20027;-78
2022/08/05 01:28:15;;;;;;;2.78;1.50;;;;;;;22.91;47.78;99641.44;5127742;27;20570;-81
2022/08/05 01:30:51;;;;;;;2.70;1.63;;;;;;;22.82;47.90;99643.81;5128215;27;20023;-78
2022/08/05 01:33:20;;;;;;;3.05;1.40;;;;;;;22.91;48.27;99662.97;5128402;27;20066;-78
2022/08/05 01:35:48;;;;;;;3.17;1.75;;;;;;;22.96;48.15;99655.47;5128074;27;20023;-78
2022/08/05 01:38:15;;;;;;;3.03;1.85;;;;;;;22.93;48.08;99642.22;5127743;27;20023;-78
2022/08/05 01:40:42;;;;;;;4.30;2.38;;;;;;;22.89;48.39;99655.88;5127523;27;20520;-77
2022/08/05 01:43:09;;;;;;;3.03;2.03;;;;;;;23.01;48.60;99658.69;5127522;28;20130;-78
2022/08/05 01:45:36;;;;;;;10.07;1.90;;;;;;;23.02;48.49;99647.84;5127616;28;20203;-78
2022/08/05 01:48:03;;;;;;;3.83;1.65;;;;;;;22.98;48.65;99659.75;5109929;28;20059;-78
2022/08/05 01:50:34;;;;;;;4.10;2.53;;;;;;;22.78;48.66;99647.66;5129922;27;20106;-79
2022/08/05 01:53:11;;;;;;;3.25;1.60;;;;;;;22.71;48.67;99636.44;5132071;27;20118;-79
2022/08/05 01:55:39;;;;;;;6.88;3.00;;;;;;;22.81;48.96;99666.25;5131428;27;20106;-78
2022/08/05 01:58:08;;;;;;;4.20;2.25;;;;;;;22.84;49.09;99666.06;5131969;27;20027;-78
2022/08/05 02:00:37;;;;;;;5.95;2.20;;;;;;;22.66;48.99;99649.34;5132119;27;20087;-79
2022/08/05 02:03:21;;;;;;;2.33;1.92;;;;;;;22.64;49.66;99671.91;5131948;27;20121;-80
2022/08/05 02:05:47;;;;;;;2.53;1.65;;;;;;;22.44;50.45;99671.38;5132126;27;20031;-82
2022/08/05 02:08:13;;;;;;;3.38;1.90;;;;;;;22.37;50.36;99647.69;5131189;27;20035;-80
2022/08/05 02:10:43;;;;;;;2.08;1.52;;;;;;;22.48;50.10;99664.00;5132194;27;20504;-78
2022/08/05 02:13:19;;;;;;;2.92;1.58;;;;;;;22.35;50.49;99663.91;5131776;27;20027;-78
2022/08/05 02:16:01;;;;;;;3.58;2.30;;;;;;;22.28;49.93;99674.16;5131586;27;20035;-78
2022/08/05 02:18:34;;;;;;;4.78;2.63;;;;;;;22.22;50.59;99663.81;5131256;27;20386;-78
2022/08/05 02:21:14;;;;;;;3.92;2.38;;;;;;;22.28;50.57;99666.09;5113105;27;20042;-78
2022/08/05 02:23:42;;;;;;;3.08;2.40;;;;;;;22.23;50.84;99678.97;5131256;27;20062;-78
2022/08/05 02:26:11;;;;;;;2.95;1.90;;;;;;;22.21;50.74;99659.38;5131385;27;20833;-77
2022/08/05 02:28:41;;;;;;;6.35;1.98;;;;;;;21.99;51.42;99662.56;5131198;27;20031;-79
2022/08/05 02:31:16;;;;;;;2.65;2.08;;;;;;;21.45;52.53;99649.75;5131572;27;20088;-78
2022/08/05 02:33:49;;;;;;;3.67;2.35;;;;;;;21.69;52.26;99652.78;5130987;27;20100;-78
2022/08/05 02:36:18;;;;;;;3.22;2.08;;;;;;;21.90;51.92;99665.84;5131151;27;20035;-78
2022/08/05 02:38:48;;;;;;;2.50;1.70;;;;;;;21.95;51.95;99661.03;5131093;27;20333;-78
2022/08/05 02:41:16;;;;;;;3.45;1.90;;;;;;;22.06;52.14;99663.03;5111846;27;20413;-79
2022/08/05 02:43:43;;;;;;;2.92;2.25;;;;;;;22.19;51.66;99658.63;5131112;27;20027;-78
2022/08/05 02:46:14;;;;;;;5.05;1.92;;;;;;;22.15;51.71;99663.34;5139146;27;20454;-78
2022/08/05 02:48:40;;;;;;;2.88;1.98;;;;;;;22.13;51.74;99662.56;5151679;27;20106;-78
2022/08/05 02:51:07;;;;;;;3.42;1.95;;;;;;;22.13;51.88;99672.44;5146519;27;20118;-80
2022/08/05 02:53:33;;;;;;;4.03;2.47;;;;;;;21.94;51.90;99646.75;5130198;27;20053;-78
2022/08/05 02:56:01;;;;;;;3.80;2.25;;;;;;;21.96;51.92;99660.94;5111968;27;20493;-79
2022/08/05 02:58:28;;;;;;;3.72;2.35;;;;;;;22.03;52.20;99677.53;5131055;27;20038;-80
2022/08/05 03:01:00;;;;;;;3.22;2.08;;;;;;;22.05;52.23;99681.00;5118735;27;20050;-78
2022/08/05 03:03:28;;;;;;;3.30;1.98;;;;;;;22.02;52.10;99665.06;5151341;27;20141;-81
2022/08/05 03:05:54;;;;;;;3.30;1.95;;;;;;;21.97;52.46;99662.66;5150981;27;20098;-79
2022/08/05 03:08:21;;;;;;;4.25;2.63;;;;;;;21.99;52.09;99670.63;5150873;27;20059;-83
2022/08/05 03:10:47;;;;;;;3.50;2.63;;;;;;;21.91;52.49;99662.19;5151050;27;20117;-79
2022/08/05 03:13:14;;;;;;;5.22;2.65;;;;;;;21.80;52.35;99665.56;5151151;27;20117;-80
2022/08/05 03:15:44;;;;;;;3.00;2.13;;;;;;;21.89;52.64;99680.22;5151544;27;20133;-81
2022/08/05 03:18:10;;;;;;;3.70;2.40;;;;;;;21.77;52.77;99676.47;5151227;27;20031;-79
2022/08/05 03:20:35;;;;;;;5.82;1.98;;;;;;;21.84;52.16;99667.06;5151082;27;20045;-79
2022/08/05 03:23:03;;;;;;;3.28;2.40;;;;;;;21.67;52.97;99683.38;5150910;27;20037;-79
2022/08/05 03:25:29;;;;;;;3.15;1.92;;;;;;;21.58;53.43;99679.41;5150780;27;20033;-79
2022/08/05 03:27:55;;;;;;;2.72;1.73;;;;;;;21.69;53.37;99673.38;5150972;27;20702;-79
2022/08/05 03:30:22;;;;;;;3.58;2.25;;;;;;;21.60;54.00;99662.28;5150926;27;20122;-79
2022/08/05 03:32:48;;;;;;;2.65;2.03;;;;;;;21.63;54.03;99672.81;5150095;27;20439;-80
2022/08/05 03:35:14;;;;;;;2.10;1.52;;;;;;;21.78;53.50;99676.38;5150541;27;20030;-80
2022/08/05 03:37:40;;;;;;;3.40;2.28;;;;;;;21.75;53.46;99663.16;5150929;27;20038;-79
2022/08/05 03:40:07;;;;;;;3.88;1.98;;;;;;;21.89;53.49;99675.72;5150374;27;20031;-83
2022/08/05 03:42:34;;;;;;;3.60;2.35;;;;;;;21.79;53.74;99683.47;5131811;27;20471;-80
2022/08/05 03:45:00;;;;;;;3.45;2.25;;;;;;;21.71;53.94;99675.03;5150759;27;20030;-80
2022/08/05 03:47:25;;;;;;;4.60;2.58;;;;;;;21.52;54.22;99651.16;5150628;27;20030;-78
2022/08/05 03:49:51;;;;;;;2.90;2.25;;;;;;;21.46;54.54;99656.84;5151024;27;20026;-79
2022/08/05 03:52:25;;;;;;;25.67;3.60;;;;;;;21.55;53.98;99663.50;5150215;27;20489;-79
2022/08/05 03:55:00;;;;;;;6.32;3.35;;;;;;;21.60;53.96;99658.72;5150213;27;20041;-78
2022/08/05 03:57:31;;;;;;;4.05;3.50;;;;;;;21.73;53.95;99680.31;5150651;27;20550;-80
2022/08/05 04:00:01;;;;;;;5.80;3.60;;;;;;;21.57;54.43;99675.88;5150263;27;20496;-79
2022/08/05 04:02:30;;;;;;;8.90;3.03;;;;;;;21.53;54.67;99655.53;5150573;27;20844;-81
2022/08/05 04:04:57;;;;;;;4.88;2.50;;;;;;;21.58;54.57;99655.25;5149699;27;20038;-79
2022/08/05 04:07:40;;;;;;;4.40;2.63;;;;;;;21.76;54.33;99680.13;5150077;27;20141;-82
2022/08/05 04:10:07;;;;;;;6.75;3.42;;;;;;;21.64;54.24;99660.25;5149587;27;20026;-81
2022/08/05 04:12:33;;;;;;;6.57;4.07;;;;;;;21.91;54.21;99678.31;5131092;27;20031;-78
2022/08/05 04:14:59;;;;;;;9.20;3.45;;;;;;;21.81;54.15;99678.00;5150113;27;20033;-78
2022/08/05 04:17:24;;;;;;;6.57;3.75;;;;;;;22.07;53.60;99679.06;5149739;27;20040;-78
2022/08/05 04:19:50;;;;;;;4.45;3.20;;;;;;;22.10;52.66;99648.47;5149991;27;20041;-78
2022/08/05 04:22:15;;;;;;;4.57;2.70;;;;;;;22.44;52.43;99670.50;5149966;27;20039;-78
2022/08/05 04:24:43;;;;;;;9.85;2.50;;;;;;;22.70;52.29;99675.03;5149390;27;20027;-78
2022/08/05 04:27:08;;;;;;;3.38;2.42;;;;;;;22.98;50.99;99678.59;5150244;27;20503;-78
2022/08/05 04:29:34;;;;;;;13.45;3.47;;;;;;;23.20;51.11;99675.38;5149743;27;20030;-78
2022/08/05 04:31:59;;;;;;;4.05;2.92;;;;;;;23.04;50.72;99658.50;5149334;27;20038;-78
2022/08/05 04:34:25;;;;;;;5.53;2.67;;;;;;;23.19;50.81;99667.41;5149555;27;20081;-78
2022/08/05 04:36:51;;;;;;;3.70;2.45;;;;;;;23.22;50.98;99673.44;5149508;27;20031;-81
2022/08/05 04:39:20;;;;;;;6.53;2.42;;;;;;;23.42;50.62;99664.00;5149374;27;20113;-78
2022/08/05 04:41:46;;;;;;;4.88;2.88;;;;;;;23.41;50.42;99675.72;5149528;27;20031;-79
2022/08/05 04:44:12;;;;;;;6.18;2.47;;;;;;;23.33;51.06;99674.53;5149169;27;20087;-78
2022/08/05 04:46:38;;;;;;;3.67;2.40;;;;;;;22.89;51.71;99660.38;5149175;27;20035;-78
2022/08/05 04:49:07;;;;;;;2.70;2.13;;;;;;;22.68;52.12;99662.69;5149511;27;20018;-78
2022/08/05 04:51:32;;;;;;;5.97;2.50;;;;;;;22.64;52.85;99655.78;5149536;27;20031;-79
2022/08/05 04:53:58;;;;;;;4.13;2.55;;;;;;;22.91;52.29;99663.84;5149232;27;20397;-79
2022/08/05 04:56:24;;;;;;;5.43;3.05;;;;;;;22.99;51.59;99655.28;5148934;27;20030;-79
2022/08/05 04:58:50;;;;;;;5.22;3.58;;;;;;;22.87;51.94;99654.25;5149209;27;20035;-78
2022/08/05 05:01:15;;;;;;;8.35;3.42;;;;;;;23.49;50.77;99664.41;5149285;27;20098;-81
2022/08/05 05:03:41;;;;;;;4.18;2.72;;;;;;;23.66;49.92;99651.63;5149112;27;20057;-78
2022/08/05 05:06:11;;;;;;;3.47;2.45;;;;;;;23.77;50.07;99644.53;5149521;27;20099;-78
2022/08/05 05:08:37;;;;;;;6.95;2.65;;;;;;;24.06;49.39;99662.28;5148697;27;20045;-80
2022/08/05 05:11:03;;;;;;;4.13;3.22;;;;;;;24.03;49.49;99651.75;5148952;27;20031;-80
2022/08/05 05:13:28;;;;;;;3.72;2.85;;;;;;;23.88;49.50;99649.19;5148889;27;20539;-79
2022/08/05 05:15:54;;;;;;;3.55;2.60;;;;;;;24.08;49.87;99658.53;5149395;27;20187;-78
2022/08/05 05:18:20;;;;;;;5.00;2.92;;;;;;;24.40;47.99;99649.91;5148965;27;20034;-81
2022/08/05 05:20:46;;;;;;;4.90;2.85;;;;;;;24.51;47.61;99668.00;5148698;27;20079;-79
2022/08/05 05:23:12;;;;;;;6.10;3.05;;;;;;;24.89;46.76;99650.00;5148898;27;20038;-79
2022/08/05 05:25:42;;;;;;;7.57;3.95;;;;;;;25.05;46.67;99660.47;5147704;27;20027;-79
2022/08/05 05:28:09;;;;;;;3.97;2.55;;;;;;;24.88;46.08;99653.66;5148788;27;20039;-78
2022/08/05 05:30:35;;;;;;;2.78;1.83;;;;;;;24.47;47.04;99653.03;5148395;27;20055;-79
2022/08/05 05:33:02;;;;;;;11.02;3.47;;;;;;;24.66;46.61;99636.38;5148429;27;20093;-78
2022/08/05 05:35:29;;;;;;;5.85;2.80;;;;;;;24.85;46.49;99654.75;5148681;27;20035;-78
2022/08/05 05:37:59;;;;;;;3.72;2.38;;;;;;;25.06;45.77;99622.59;5148270;27;20056;-79
2022/08/05 05:40:26;;;;;;;4.22;2.72;;;;;;;25.58;44.38;99654.63;5148238;27;20026;-79
2022/08/05 05:42:51;;;;;;;3.40;2.05;;;;;;;25.35;44.51;99658.16;5148814;27;20454;-78
2022/08/05 05:45:17;;;;;;;5.35;3.30;;;;;;;25.51;44.36;99638.06;5148707;27;20031;-79
2022/08/05 05:47:43;;;;;;;4.03;2.47;;;;;;;25.76;45.03;99655.03;5148537;27;20056;-78
2022/08/05 05:50:12;;;;;;;4.68;2.00;;;;;;;25.99;42.70;99645.13;5148343;27;20031;-78
2022/08/05 05:52:37;;;;;;;5.32;2.55;;;;;;;25.96;43.81;99657.00;5148909;27;20821;-78
2022/08/05 05:55:07;;;;;;;4.55;2.22;;;;;;;25.76;45.20;99639.69;5148282;27;20031;-78
2022/08/05 05:57:33;;;;;;;5.97;2.80;;;;;;;26.14;43.87;99643.91;5148611;27;20026;-78
2022/08/05 05:59:58;;;;;;;3.70;2.42;;;;;;;26.25;43.78;99653.84;5148260;27;20102;-81
2022/08/05 06:02:24;;;;;;;3.75;2.38;;;;;;;26.66;43.52;99652.31;5148653;27;20019;-79
2022/08/05 06:04:49;;;;;;;3.22;1.95;;;;;;;27.22;42.65;99643.13;5148072;27;20573;-79
2022/08/05 06:07:15;;;;;;;4.63;2.45;;;;;;;27.23;41.94;99636.69;5129199;27;20038;-79
2022/08/05 06:09:40;;;;;;;2.92;1.63;;;;;;;26.84;43.24;99649.91;5147976;27;20034;-79
2022/08/05 06:12:06;;;;;;;6.10;2.40;;;;;;;26.90;42.74;99625.06;5147952;27;20026;-79
2022/08/05 06:14:32;;;;;;;11.27;3.42;;;;;;;27.38;42.34;99642.69;5148331;27;20076;-78
2022/08/05 06:16:58;;;;;;;3.00;2.17;;;;;;;27.45;41.14;99626.75;5148213;27;20031;-81
2022/08/05 06:19:25;;;;;;;2.88;2.03;;;;;;;27.68;41.75;99639.16;5148243;27;20031;-78
2022/08/05 06:21:51;;;;;;;3.63;2.33;;;;;;;27.83;38.80;99639.66;5148287;27;20034;-81
2022/08/05 06:24:16;;;;;;;3.13;1.92;;;;;;;27.58;39.49;99627.41;5147756;27;20420;-79
2022/08/05 06:26:42;;;;;;;2.95;2.03;;;;;;;27.94;39.89;99648.69;5147850;27;20086;-79
2022/08/05 06:29:08;;;;;;;2.63;1.88;;;;;;;27.96;39.15;99649.44;5149014;27;20023;-79
2022/08/05 06:31:33;;;;;;;3.75;1.83;;;;;;;28.17;39.36;99630.41;5148016;27;20087;-78
2022/08/05 06:33:59;;;;;;;5.20;2.28;;;;;;;28.36;37.82;99626.88;5148165;27;20046;-83
2022/08/05 06:36:25;;;;;;;4.22;2.13;;;;;;;28.60;39.54;99644.69;5149943;27;20415;-78
2022/08/05 06:38:53;;;;;;;3.55;2.58;;;;;;;28.89;37.71;99623.00;5151536;27;20030;-78
2022/08/05 06:41:19;;;;;;;3.50;2.08;;;;;;;29.04;37.14;99631.56;5152261;27;20026;-78
2022/08/05 06:43:45;;;;;;;4.30;1.92;;;;;;;28.65;38.44;99637.81;5151911;27;20042;-79
2022/08/05 06:46:10;;;;;;;3.10;2.05;;;;;;;28.87;38.94;99630.41;5151679;27;20026;-79
2022/08/05 06:48:36;;;;;;;2.88;1.85;;;;;;;29.05;37.63;99625.16;5151611;27;20027;-79
2022/08/05 06:51:03;;;;;;;2.60;2.38;;;;;;;29.38;37.11;99626.56;5151729;27;20066;-79
2022/08/05 06:53:28;;;;;;;2.58;2.00;;;;;;;29.55;35.94;99643.09;5151148;27;20031;-79
2022/08/05 06:55:55;;;;;;;3.20;2.08;;;;;;;29.68;36.42;99640.09;5151772;27;20719;-80
2022/08/05 06:58:21;;;;;;;3.92;2.53;;;;;;;29.54;36.49;99625.13;5151254;27;20027;-78
2022/08/05 07:00:46;;;;;;;2.47;1.63;;;;;;;30.04;36.92;99643.84;5151581;27;20041;-80
2022/08/05 07:03:12;;;;;;;2.78;1.88;;;;;;;30.16;35.50;99641.78;5151394;27;20087;-81
2022/08/05 07:05:37;;;;;;;4.47;1.92;;;;;;;30.21;35.79;99627.75;5151496;27;20120;-80
2022/08/05 07:08:03;;;;;;;2.67;2.10;;;;;;;30.69;36.67;99643.81;5151366;27;20103;-80
2022/08/05 07:10:28;;;;;;;2.08;1.40;;;;;;;30.85;34.75;99624.03;5132373;27;20043;-81
2022/08/05 07:18:23;;;;;;;2.60;1.93;;;;;;;31.44;34.24;99623.53;5150994;27;20530;-79
2022/08/05 07:20:48;;;;;;;3.45;1.85;;;;;;;31.48;34.62;99618.63;5150811;27;20256;-80
2022/08/05 07:23:14;;;;;;;7.10;2.47;;;;;;;31.58;34.59;99633.88;5151476;27;20032;-80
2022/08/05 07:25:39;;;;;;;2.13;1.60;;;;;;;31.94;33.14;99611.91;5151267;27;20050;-79
2022/08/05 07:28:05;;;;;;;3.17;2.20;;;;;;;32.10;33.24;99638.47;5150645;27;20027;-80
2022/08/05 07:30:34;;;;;;;2.63;1.73;;;;;;;32.18;31.80;99620.41;5151119;27;20174;-79
2022/08/05 07:33:04;;;;;;;2.85;2.13;;;;;;;31.79;33.98;99616.28;5150810;27;20054;-79
2022/08/05 07:35:29;;;;;;;2.92;1.90;;;;;;;32.97;32.30;99613.63;5151016;27;20027;-80
2022/08/05 07:37:55;;;;;;;3.22;2.28;;;;;;;32.87;32.39;99596.53;5150770;27;20033;-82
2022/08/05 07:40:21;;;;;;;2.72;1.60;;;;;;;32.92;32.12;99620.59;5150330;27;20034;-80
2022/08/05 07:42:47;;;;;;;2.47;1.58;;;;;;;32.79;32.42;99616.50;5150792;27;20492;-82
2022/08/05 07:45:12;;;;;;;4.40;2.28;;;;;;;32.96;32.26;99616.53;5150689;27;20404;-79
2022/08/05 07:47:38;;;;;;;3.08;1.95;;;;;;;32.42;32.54;99609.56;5149379;27;20034;-79
2022/08/05 07:50:04;;;;;;;2.00;1.80;;;;;;;32.18;32.01;99623.13;5150468;27;20038;-80
2022/08/05 07:52:30;;;;;;;2.40;1.55;;;;;;;32.17;31.36;99624.16;5150558;27;20042;-79
2022/08/05 07:54:56;;;;;;;3.13;2.00;;;;;;;31.83;32.94;99623.13;5150053;27;20027;-79
2022/08/05 07:57:21;;;;;;;4.18;3.00;;;;;;;32.23;32.32;99605.25;5150388;27;20062;-80
2022/08/05 07:59:47;;;;;;;3.28;2.05;;;;;;;32.49;31.68;99607.03;5150649;27;20113;-79
2022/08/05 08:02:12;;;;;;;3.28;2.40;;;;;;;32.69;31.22;99601.28;5150618;27;20061;-83
2022/08/05 08:04:38;;;;;;;3.83;2.20;;;;;;;32.57;32.98;99604.31;5150423;27;20026;-80
2022/08/05 08:07:04;;;;;;;3.22;2.40;;;;;;;32.62;31.89;99612.00;5150181;27;20030;-80
2022/08/05 08:09:29;;;;;;;4.10;2.33;;;;;;;33.33;31.79;99606.97;5149892;27;20109;-82
2022/08/05 08:11:55;;;;;;;2.72;2.10;;;;;;;33.63;31.20;99593.59;5149772;27;20510;-80
2022/08/05 08:14:20;;;;;;;3.45;2.13;;;;;;;33.43;30.38;99606.78;5149844;27;20079;-79
2022/08/05 08:16:46;;;;;;;3.38;1.77;;;;;;;33.22;33.21;99615.53;5150091;27;20141;-80
2022/08/05 08:19:11;;;;;;;3.63;2.40;;;;;;;33.11;31.29;99597.59;5149778;27;20031;-79
2022/08/05 08:21:37;;;;;;;4.30;3.15;;;;;;;33.32;32.45;99603.41;5149901;27;20041;-81
2022/08/05 08:24:02;;;;;;;2.72;1.58;;;;;;;33.41;29.65;99609.69;5149475;27;20461;-80
2022/08/05 08:26:28;;;;;;;2.88;1.80;;;;;;;33.44;29.07;99589.38;5149211;27;20042;-80
2022/08/05 08:28:53;;;;;;;2.65;1.92;;;;;;;33.94;29.49;99596.44;5150061;27;20114;-80
2022/08/05 08:31:19;;;;;;;2.90;1.75;;;;;;;34.12;28.86;99589.84;5149600;27;20083;-80
2022/08/05 08:33:45;;;;;;;8.95;3.50;;;;;;;34.26;30.11;99597.34;5149641;27;20518;-79
2022/08/05 08:36:11;;;;;;;2.50;1.80;;;;;;;33.98;30.09;99603.25;5149225;27;20039;-82
2022/08/05 08:38:36;;;;;;;5.45;2.10;;;;;;;34.25;30.35;99588.28;5149496;27;20393;-80
2022/08/05 08:41:07;;;;;;;2.38;1.60;;;;;;;34.30;28.73;99585.00;5149672;27;20033;-80
2022/08/05 08:43:34;;;;;;;1.70;1.30;;;;;;;34.37;28.72;99580.53;5149230;27;20033;-80
2022/08/05 08:46:02;;;;;;;3.22;1.77;;;;;;;34.92;28.92;99581.34;5149250;27;20054;-80
2022/08/05 08:48:30;;;;;;;2.80;1.80;;;;;;;35.21;27.60;99573.41;5149455;27;20408;-80
2022/08/05 08:50:56;;;;;;;5.25;2.00;;;;;;;35.55;28.56;99555.63;5130540;27;20774;-80
2022/08/05 08:53:23;;;;;;;3.42;1.70;;;;;;;35.86;28.05;99569.16;5148965;27;20036;-83
2022/08/05 08:55:49;;;;;;;2.22;1.48;;;;;;;35.53;28.00;99561.28;5149414;27;20113;-80
2022/08/05 08:58:16;;;;;;;4.82;1.88;;;;;;;35.69;28.67;99568.47;5149221;27;20109;-80
2022/08/05 09:00:42;;;;;;;2.40;1.50;;;;;;;35.75;26.48;99562.22;5149037;27;20594;-80
2022/08/05 09:03:12;;;;;;;4.38;1.55;;;;;;;36.16;25.30;99548.00;5148970;27;20031;-81
2022/08/05 09:05:38;;;;;;;2.25;1.33;;;;;;;35.38;26.89;99546.72;5130792;27;20765;-81
2022/08/05 09:08:04;;;;;;;1.55;1.25;;;;;;;35.74;27.22;99551.44;5128209;27;20034;-84
2022/08/05 09:10:30;;;;;;;2.35;1.50;;;;;;;36.06;25.94;99541.13;5128232;27;20045;-81
2022/08/05 09:12:56;;;;;;;2.75;1.98;;;;;;;35.71;26.85;99530.72;5128058;27;20032;-81
2022/08/05 09:15:21;;;;;;;1.83;1.20;;;;;;;36.29;26.14;99527.28;5128395;27;20027;-81
2022/08/05 09:17:47;;;;;;;2.30;1.40;;;;;;;36.34;25.17;99531.13;5128339;27;20411;-81
2022/08/05 09:20:13;;;;;;;2.30;1.42;;;;;;;36.62;24.73;99518.50;5128070;27;20552;-81
2022/08/05 09:23:04;;;;;;;2.10;1.20;;;;;;;36.92;24.16;99530.19;5128061;27;20034;-79
2022/08/05 09:25:29;;;;;;;4.07;1.70;;;;;;;37.19;23.11;99509.28;5132948;27;20026;-81
2022/08/05 09:27:55;;;;;;;1.73;1.30;;;;;;;36.97;23.22;99524.09;5139063;27;20033;-81
2022/08/05 09:30:21;;;;;;;2.35;1.40;;;;;;;37.21;24.39;99525.56;5134180;27;20031;-80
2022/08/05 09:32:46;;;;;;;1.90;1.17;;;;;;;37.26;25.29;99531.34;5138169;27;20409;-83
2022/08/05 09:35:14;;;;;;;3.80;1.27;;;;;;;37.20;21.82;99521.09;5128201;27;20110;-80
2022/08/05 09:37:52;;;;;;;2.00;1.60;;;;;;;36.65;22.08;99513.47;5127437;27;20039;-79
2022/08/05 09:40:39;;;;;;;2.20;1.40;;;;;;;36.56;23.23;99514.66;5127567;27;20043;-80
2022/08/05 09:43:06;;;;;;;2.72;1.67;;;;;;;35.67;23.38;99483.63;5128027;27;20350;-80
2022/08/05 09:45:41;;;;;;;1.60;1.23;;;;;;;35.73;25.54;99505.84;5127554;27;20067;-81
2022/08/05 09:48:20;;;;;;;5.72;2.13;;;;;;;36.31;23.38;99505.94;5127599;28;20027;-81
2022/08/05 09:50:50;;;;;;;3.97;1.42;;;;;;;36.29;22.95;99497.91;5127762;28;20069;-80
2022/08/05 09:53:16;;;;;;;2.00;1.38;;;;;;;36.27;22.71;99488.16;5127563;28;20031;-80
2022/08/05 09:55:42;;;;;;;2.33;1.35;;;;;;;36.12;22.71;99491.78;5127633;28;20027;-81
2022/08/05 09:58:12;;;;;;;1.67;1.20;;;;;;;36.46;22.78;99487.53;5128016;28;20042;-80
2022/08/05 10:00:38;;;;;;;2.25;1.48;;;;;;;37.37;23.13;99500.56;5127367;28;20027;-81
2022/08/05 10:03:10;;;;;;;3.15;1.40;;;;;;;36.92;22.62;99489.84;5127759;28;20039;-82
2022/08/05 10:05:36;;;;;;;2.85;1.63;;;;;;;36.91;22.04;99479.91;5127513;28;20031;-80
2022/08/05 10:08:05;;;;;;;2.58;1.83;;;;;;;36.99;22.78;99475.31;5127895;28;20031;-83
2022/08/05 10:10:45;;;;;;;1.33;1.13;;;;;;;37.10;22.59;99492.06;5128146;27;20043;-81
2022/08/05 10:13:24;;;;;;;1.70;1.23;;;;;;;37.10;23.79;99493.97;5131906;27;20050;-82
2022/08/05 10:15:50;;;;;;;3.28;1.67;;;;;;;37.01;22.39;99482.28;5131556;27;20047;-82
2022/08/05 10:18:21;;;;;;;7.78;2.25;;;;;;;37.53;21.68;99487.53;5131699;27;20416;-81
2022/08/05 10:20:47;;;;;;;1.67;1.25;;;;;;;37.46;22.06;99492.97;5131469;27;20031;-81
2022/08/05 10:23:17;;;;;;;2.13;1.60;;;;;;;37.17;22.46;99470.16;5131425;27;20767;-81
2022/08/05 10:25:42;;;;;;;2.83;1.45;;;;;;;37.37;21.94;99470.31;5131614;27;20038;-81
2022/08/05 10:28:08;;;;;;;1.80;1.20;;;;;;;37.63;21.95;99468.72;5131240;27;20031;-81
2022/08/05 10:30:36;;;;;;;1.77;1.45;;;;;;;37.40;21.89;99460.78;5131741;27;20039;-83
2022/08/05 10:33:03;;;;;;;2.28;1.58;;;;;;;37.22;22.06;99450.31;5131489;27;20054;-80
2022/08/05 10:35:29;;;;;;;1.75;1.20;;;;;;;37.14;23.85;99461.44;5131607;27;20023;-80
2022/08/05 10:37:55;;;;;;;1.55;1.25;;;;;;;37.54;21.66;99464.44;5112640;27;20420;-79
2022/08/05 10:40:23;;;;;;;2.22;1.38;;;;;;;37.36;22.47;99462.25;5131144;27;20030;-81
2022/08/05 10:42:53;;;;;;;2.22;1.40;;;;;;;36.66;22.81;99446.50;5130890;27;20028;-81
2022/08/05 10:45:29;;;;;;;2.60;1.48;;;;;;;35.98;23.58;99465.25;5131069;27;20034;-81
2022/08/05 10:47:55;;;;;;;1.92;1.48;;;;;;;36.02;23.76;99455.56;5131165;27;20023;-80
2022/08/05 10:50:20;;;;;;;2.42;1.55;;;;;;;36.06;23.41;99450.56;5131211;27;20039;-80
2022/08/05 10:52:58;;;;;;;3.20;1.75;;;;;;;36.20;22.67;99444.16;5131014;27;20480;-84
2022/08/05 10:55:25;;;;;;;2.80;1.85;;;;;;;36.63;22.27;99457.88;5130776;27;20413;-82
2022/08/05 10:58:10;;;;;;;1.85;1.38;;;;;;;36.23;24.49;99446.50;5130926;27;20552;-80
2022/08/05 11:00:36;;;;;;;2.03;1.50;;;;;;;35.85;23.83;99433.88;5130718;27;20031;-80
2022/08/05 11:03:04;;;;;;;2.55;1.30;;;;;;;35.58;24.23;99442.78;5130729;27;20068;-82
2022/08/05 11:05:31;;;;;;;11.15;2.50;;;;;;;35.32;24.03;99427.69;5130490;27;20763;-79
2022/08/05 11:08:03;;;;;;;4.25;2.00;;;;;;;35.66;24.29;99432.53;5130744;27;20023;-79
2022/08/05 11:10:29;;;;;;;2.88;1.85;;;;;;;35.96;24.31;99424.28;5112359;27;20394;-81
2022/08/05 11:12:56;;;;;;;5.47;1.75;;;;;;;36.48;23.37;99426.91;5130466;27;20044;-82
2022/08/05 11:15:23;;;;;;;2.75;1.73;;;;;;;36.56;22.50;99419.38;5130611;27;20110;-81
2022/08/05 11:17:50;;;;;;;2.03;1.67;;;;;;;36.61;23.68;99417.91;5130318;27;20085;-82
2022/08/05 11:20:37;;;;;;;3.83;2.08;;;;;;;36.57;22.97;99422.97;5129912;27;20039;-83
2022/08/05 11:23:27;;;;;;;2.33;1.38;;;;;;;36.47;23.57;99420.56;5129340;27;20029;-83
2022/08/05 11:26:21;;;;;;;2.53;1.50;;;;;;;36.55;22.64;99416.84;5130253;27;20031;-80
2022/08/05 11:28:50;;;;;;;3.28;1.95;;;;;;;36.55;22.65;99416.84;5130313;27;20843;-80
2022/08/05 11:31:17;;;;;;;1.52;1.27;;;;;;;36.10;22.17;99418.91;5130159;27;20084;-80
2022/08/05 11:33:45;;;;;;;4.82;1.67;;;;;;;36.32;22.75;99412.41;5129875;27;20103;-79
2022/08/05 11:36:12;;;;;;;2.58;1.63;;;;;;;35.94;23.01;99382.44;5130481;27;20035;-80
2022/08/05 11:38:41;;;;;;;2.30;1.80;;;;;;;36.50;22.69;99403.69;5129751;27;20453;-80
2022/08/05 11:41:12;;;;;;;1.88;1.17;;;;;;;36.44;22.85;99396.25;5130371;27;20760;-82
2022/08/05 11:43:41;;;;;;;2.20;1.70;;;;;;;35.93;22.50;99388.13;5129841;27;20027;-79